Pville, Alabama
Current Conditions -  °F | °C
As of 8:55 PM on Friday 19 Dec 2014 (Local Time) from K1A9 Reporting Station
Light Rain Light Rain  
Wind Chill: 44°   Ceiling: 7000
Heat Index: 44°   Visibility: 7mi
Dew Point: 42°   Wind: 3mph
Humidity: 93%   Direction: 10°N
Pressure: 30.16"   Gusts: NA
Location:  32.4989°N, 86.4129°W
Report Text: K1A9 200255Z AUTO 01003KT 7SM -RA BKN070 OVC085 07/05 A3016 RMK AO2 P0006 60012 T00650054
Loading
Personal Weather Stations






























Interactive Weather Map New forecast layout! Learn more

10-Day Weather Forecast

Advertisements
Track Severe Weather on mobile